createdAt,value
2022-10-12T00:03:45.059Z,99.90
2022-10-12T00:08:47.747Z,99.90
2022-10-12T00:13:49.913Z,99.90
2022-10-12T00:18:52.833Z,99.90
2022-10-12T00:23:57.576Z,99.90
2022-10-12T00:29:01.493Z,99.90
2022-10-12T00:34:03.996Z,99.90
2022-10-12T00:39:08.383Z,99.90
2022-10-12T00:44:36.568Z,99.90
2022-10-12T00:49:38.520Z,99.90
2022-10-12T00:54:43.732Z,99.90
2022-10-12T01:00:01.804Z,99.90
2022-10-12T01:05:04.813Z,99.90
2022-10-12T01:10:07.405Z,99.90
2022-10-12T01:15:10.764Z,99.90
2022-10-12T01:20:31.537Z,99.90
2022-10-12T01:25:52.163Z,99.90
2022-10-12T01:31:01.095Z,99.90
2022-10-12T01:36:18.088Z,99.90
2022-10-12T01:41:25.626Z,99.90
2022-10-12T01:46:27.396Z,99.90
2022-10-12T01:51:50.119Z,99.90
2022-10-12T01:57:04.595Z,99.90
2022-10-12T02:02:30.068Z,99.90
2022-10-12T02:07:42.809Z,99.90
2022-10-12T02:12:46.066Z,99.90
2022-10-12T02:17:49.378Z,99.90
2022-10-12T02:22:52.076Z,99.90
2022-10-12T02:28:04.291Z,99.90
2022-10-12T02:33:19.375Z,99.90
2022-10-12T02:38:43.786Z,99.90
2022-10-12T02:43:54.290Z,99.90
2022-10-12T02:48:57.124Z,99.90
2022-10-12T02:53:59.848Z,99.90
2022-10-12T02:59:01.776Z,99.90
2022-10-12T03:04:03.805Z,99.90
2022-10-12T03:09:05.621Z,99.90
2022-10-12T03:14:07.481Z,99.90
2022-10-12T03:19:09.750Z,99.90
2022-10-12T03:24:11.773Z,99.90
2022-10-12T03:29:22.788Z,99.90
2022-10-12T03:34:24.716Z,99.90
2022-10-12T03:39:26.579Z,99.90
2022-10-12T03:44:28.455Z,99.90
2022-10-12T03:49:30.293Z,99.90
2022-10-12T03:54:32.117Z,99.90
2022-10-12T03:59:33.978Z,99.90
2022-10-12T04:04:35.893Z,99.90
2022-10-12T04:09:37.877Z,99.90
2022-10-12T04:14:40.160Z,99.90
2022-10-12T04:19:42.325Z,99.90
2022-10-12T04:24:44.144Z,99.90
2022-10-12T04:29:46.074Z,99.90
2022-10-12T04:34:47.953Z,99.90
2022-10-12T04:39:49.916Z,99.90
2022-10-12T04:44:52.001Z,99.90
2022-10-12T04:49:53.871Z,99.90
2022-10-12T04:54:55.747Z,99.90
2022-10-12T04:59:57.589Z,99.90
2022-10-12T05:04:59.486Z,99.90
2022-10-12T05:10:01.584Z,99.90
2022-10-12T05:15:04.266Z,99.90
2022-10-12T05:20:06.806Z,99.90
2022-10-12T05:25:09.247Z,99.90
2022-10-12T05:30:11.978Z,99.90
2022-10-12T05:35:13.850Z,99.90
2022-10-12T05:40:15.688Z,99.90
2022-10-12T05:45:17.851Z,99.90
2022-10-12T05:50:19.701Z,99.90
2022-10-12T05:55:21.525Z,99.90
2022-10-12T06:00:23.669Z,99.90
2022-10-12T06:05:25.720Z,99.90
2022-10-12T06:10:29.970Z,99.90
2022-10-12T06:15:32.032Z,99.90
2022-10-12T06:20:33.865Z,99.90
2022-10-12T06:25:35.707Z,99.90
2022-10-12T06:30:37.585Z,99.90
2022-10-12T06:35:39.407Z,99.90
2022-10-12T06:40:41.427Z,99.90
2022-10-12T06:45:43.444Z,99.90
2022-10-12T06:50:46.605Z,99.30
2022-10-12T06:55:49.183Z,99.00
2022-10-12T07:00:51.643Z,98.50
2022-10-12T07:05:53.509Z,97.10
2022-10-12T07:11:03.721Z,96.60
2022-10-12T07:16:05.764Z,96.90
2022-10-12T07:21:07.681Z,95.00
2022-10-12T07:26:09.701Z,95.80
2022-10-12T07:31:11.700Z,94.60
2022-10-12T07:36:15.063Z,94.10
2022-10-12T07:41:22.615Z,93.20
2022-10-12T07:46:25.980Z,93.00
2022-10-12T07:51:27.880Z,91.70
2022-10-12T07:56:29.760Z,91.50
2022-10-12T08:01:32.365Z,90.60
2022-10-12T08:06:34.547Z,90.70
2022-10-12T08:11:42.257Z,90.90
2022-10-12T08:16:44.709Z,90.40
2022-10-12T08:21:46.559Z,90.30
2022-10-12T08:26:48.402Z,87.30
2022-10-12T08:31:51.217Z,86.90
2022-10-12T08:36:53.067Z,85.50
2022-10-12T08:42:17.694Z,87.40
2022-10-12T08:47:38.299Z,85.60
2022-10-12T08:52:46.773Z,85.30
2022-10-12T08:57:50.031Z,82.50
2022-10-12T09:03:16.172Z,82.00
2022-10-12T09:08:53.757Z,83.20
2022-10-12T09:14:10.637Z,80.30
2022-10-12T09:19:19.717Z,81.20
2022-10-12T09:24:26.804Z,78.40
2022-10-12T09:29:31.289Z,76.60
2022-10-12T09:34:33.149Z,74.80
2022-10-12T09:39:36.878Z,75.20
2022-10-12T09:44:43.080Z,72.80
2022-10-12T09:49:50.375Z,74.10
2022-10-12T09:54:55.527Z,73.20
2022-10-12T09:59:57.784Z,73.60
2022-10-12T10:05:20.775Z,74.20
2022-10-12T10:10:29.281Z,74.70
2022-10-12T10:15:34.405Z,75.00
2022-10-12T10:20:43.826Z,71.90
2022-10-12T10:26:04.454Z,73.00
2022-10-12T10:31:21.911Z,72.50
2022-10-12T10:36:26.729Z,72.60
2022-10-12T10:41:37.081Z,74.60
2022-10-12T10:46:39.226Z,73.90
2022-10-12T10:51:54.076Z,73.30
2022-10-12T10:57:11.384Z,71.90
2022-10-12T11:02:19.355Z,71.00
2022-10-12T11:07:43.018Z,72.30
2022-10-12T11:12:49.780Z,69.00
2022-10-12T11:18:00.795Z,70.50
2022-10-12T11:23:17.493Z,69.90
2022-10-12T11:28:19.379Z,69.70
2022-10-12T11:33:24.061Z,67.20
2022-10-12T11:38:38.797Z,67.20
2022-10-12T11:44:20.718Z,68.60
2022-10-12T11:50:19.696Z,68.80
2022-10-12T11:55:33.944Z,65.90
2022-10-12T12:01:01.992Z,65.20
2022-10-12T12:06:44.910Z,64.80
2022-10-12T12:11:46.752Z,62.90
2022-10-12T12:16:49.692Z,64.70
2022-10-12T12:22:12.074Z,65.30
2022-10-12T12:27:41.979Z,65.80
2022-10-12T12:32:48.437Z,64.20
2022-10-12T12:38:05.094Z,64.50
2022-10-12T12:43:50.947Z,66.60
2022-10-12T12:48:52.710Z,65.90
2022-10-12T12:54:04.370Z,66.80
2022-10-12T12:59:15.243Z,66.80
2022-10-12T13:04:48.133Z,66.80
2022-10-12T13:10:16.953Z,67.40
2022-10-12T13:15:33.671Z,68.00
2022-10-12T13:20:38.885Z,69.70
2022-10-12T13:25:44.797Z,70.30
2022-10-12T13:30:59.724Z,67.00
2022-10-12T13:36:07.874Z,68.90
2022-10-12T13:41:12.744Z,65.30
2022-10-12T13:46:34.095Z,66.40
2022-10-12T13:51:35.928Z,67.30
2022-10-12T13:56:38.646Z,67.10
2022-10-12T14:01:56.451Z,67.90
2022-10-12T14:07:05.803Z,70.70
2022-10-12T14:12:08.869Z,68.80
2022-10-12T14:17:18.262Z,70.70
2022-10-12T14:22:26.323Z,71.90
2022-10-12T14:27:29.009Z,73.20
2022-10-12T14:32:42.205Z,71.20
2022-10-12T14:37:44.932Z,72.40
2022-10-12T14:43:24.203Z,73.90
2022-10-12T14:48:26.158Z,73.20
2022-10-12T14:53:29.543Z,74.50
2022-10-12T14:58:31.383Z,75.40
2022-10-12T15:03:33.296Z,77.30
2022-10-12T15:08:35.133Z,78.40
2022-10-12T15:13:36.978Z,78.30
2022-10-12T15:18:38.823Z,80.40
2022-10-12T15:23:40.809Z,82.50
2022-10-12T15:28:43.472Z,79.00
2022-10-12T15:33:45.477Z,82.70
2022-10-12T15:38:50.168Z,85.90
2022-10-12T15:43:51.993Z,88.50
2022-10-12T15:48:54.414Z,90.00
2022-10-12T15:53:56.324Z,90.50
2022-10-12T15:59:03.482Z,91.10
2022-10-12T16:04:07.748Z,92.90
2022-10-12T16:09:20.373Z,93.10
2022-10-12T16:14:23.392Z,95.30
2022-10-12T16:19:25.227Z,96.70
2022-10-12T16:24:27.129Z,97.40
2022-10-12T16:29:29.101Z,95.90
2022-10-12T16:34:31.479Z,97.00
2022-10-12T16:39:33.360Z,98.00
2022-10-12T16:44:35.275Z,98.60
2022-10-12T16:49:37.099Z,98.60
2022-10-12T16:54:39.327Z,99.90
2022-10-12T16:59:41.183Z,99.90
2022-10-12T17:04:43.086Z,99.90
2022-10-12T17:09:45.868Z,99.90
2022-10-12T17:14:47.908Z,99.90
2022-10-12T17:19:49.834Z,99.90
2022-10-12T17:24:51.870Z,99.90
2022-10-12T17:29:57.100Z,99.90
2022-10-12T17:34:58.984Z,99.90
2022-10-12T17:40:02.194Z,99.90
2022-10-12T17:45:04.613Z,99.90
2022-10-12T17:50:07.539Z,99.90
2022-10-12T17:55:24.342Z,99.90
2022-10-12T18:00:32.111Z,99.90
2022-10-12T18:05:34.367Z,99.90
2022-10-12T18:10:40.832Z,99.90
2022-10-12T18:15:45.980Z,99.90
2022-10-12T18:20:48.124Z,99.90
2022-10-12T18:25:51.156Z,99.90
2022-10-12T18:30:53.318Z,99.90
2022-10-12T18:35:55.221Z,99.90
2022-10-12T18:41:03.039Z,99.90
2022-10-12T18:46:09.448Z,99.90
2022-10-12T18:51:18.744Z,99.90
2022-10-12T18:56:30.808Z,99.90
2022-10-12T19:01:35.887Z,99.90
2022-10-12T19:06:41.483Z,99.90
2022-10-12T19:11:43.488Z,99.90
2022-10-12T19:16:45.934Z,99.90
2022-10-12T19:21:52.104Z,99.90
2022-10-12T19:26:54.022Z,99.90
2022-10-12T19:31:55.873Z,99.90
2022-10-12T19:37:00.732Z,99.90
2022-10-12T19:42:03.246Z,99.90
2022-10-12T19:47:06.181Z,99.90
2022-10-12T19:52:08.267Z,99.90
2022-10-12T19:57:10.164Z,99.90
2022-10-12T20:02:12.136Z,99.90
2022-10-12T20:07:13.968Z,99.90
2022-10-12T20:12:16.276Z,99.90
2022-10-12T20:17:22.996Z,99.90
2022-10-12T20:22:24.809Z,99.90
2022-10-12T20:27:26.860Z,99.90
2022-10-12T20:32:28.893Z,99.90
2022-10-12T20:37:32.444Z,99.90
2022-10-12T20:42:35.428Z,99.90
2022-10-12T20:47:39.643Z,99.90
2022-10-12T20:52:43.161Z,99.90
2022-10-12T20:57:45.113Z,99.90
2022-10-12T21:02:46.990Z,99.90
2022-10-12T21:07:48.874Z,99.90
2022-10-12T21:12:50.707Z,99.90
2022-10-12T21:17:52.561Z,99.90
2022-10-12T21:22:54.437Z,99.90
2022-10-12T21:27:56.293Z,99.90
2022-10-12T21:32:58.193Z,99.90
2022-10-12T21:38:00.010Z,99.90
2022-10-12T21:43:02.137Z,99.90
2022-10-12T21:48:04.079Z,99.90
2022-10-12T21:53:06.033Z,99.90
2022-10-12T21:58:07.861Z,99.90
2022-10-12T22:03:09.773Z,99.90
2022-10-12T22:08:11.652Z,99.90
2022-10-12T22:13:13.493Z,99.90
2022-10-12T22:18:15.370Z,99.90
2022-10-12T22:23:17.189Z,99.90
2022-10-12T22:28:19.068Z,99.90
2022-10-12T22:33:21.165Z,99.90
2022-10-12T22:38:23.221Z,99.90
2022-10-12T22:43:26.992Z,99.90
2022-10-12T22:48:29.289Z,99.90
2022-10-12T22:53:31.217Z,99.90
2022-10-12T22:58:33.762Z,99.90
2022-10-12T23:03:36.224Z,99.90
2022-10-12T23:08:38.126Z,99.90
2022-10-12T23:13:40.757Z,99.90
2022-10-12T23:18:43.045Z,99.90
2022-10-12T23:23:46.144Z,99.90
2022-10-12T23:28:48.912Z,99.90
2022-10-12T23:33:58.823Z,99.90
2022-10-12T23:39:01.567Z,99.90
2022-10-12T23:44:03.684Z,99.90
2022-10-12T23:49:05.540Z,99.90
2022-10-12T23:54:07.566Z,99.90
2022-10-12T23:59:09.456Z,99.90
